sensor_id;sensor_type;location;lat;lon;timestamp;temperature;humidity
20750;DHT22;10535;50.664;4.564;2023-06-19T00:02:17;19.60;99.90
20750;DHT22;10535;50.664;4.564;2023-06-19T00:04:43;19.50;99.90
20750;DHT22;10535;50.664;4.564;2023-06-19T00:07:09;19.40;99.90
20750;DHT22;10535;50.664;4.564;2023-06-19T00:09:34;19.30;99.90
20750;DHT22;10535;50.664;4.564;2023-06-19T00:12:00;19.30;99.90
20750;DHT22;10535;50.664;4.564;2023-06-19T00:14:26;19.30;99.90
20750;DHT22;10535;50.664;4.564;2023-06-19T00:16:52;19.40;99.90
20750;DHT22;10535;50.664;4.564;2023-06-19T00:19:18;19.30;99.90
20750;DHT22;10535;50.664;4.564;2023-06-19T00:21:43;19.30;99.90
20750;DHT22;10535;50.664;4.564;2023-06-19T00:24:10;19.30;99.90
20750;DHT22;10535;50.664;4.564;2023-06-19T00:26:36;19.30;99.90
20750;DHT22;10535;50.664;4.564;2023-06-19T00:29:01;19.30;99.90
20750;DHT22;10535;50.664;4.564;2023-06-19T00:31:27;19.20;99.90
20750;DHT22;10535;50.664;4.564;2023-06-19T00:33:53;19.20;99.90
20750;DHT22;10535;50.664;4.564;2023-06-19T00:36:19;19.30;99.90
20750;DHT22;10535;50.664;4.564;2023-06-19T00:38:49;19.30;99.90
20750;DHT22;10535;50.664;4.564;2023-06-19T00:41:18;19.30;99.90
20750;DHT22;10535;50.664;4.564;2023-06-19T00:43:44;19.40;99.90
20750;DHT22;10535;50.664;4.564;2023-06-19T00:46:10;19.60;99.90
20750;DHT22;10535;50.664;4.564;2023-06-19T00:48:36;19.50;99.90
20750;DHT22;10535;50.664;4.564;2023-06-19T00:51:02;19.50;99.90
20750;DHT22;10535;50.664;4.564;2023-06-19T00:53:28;19.50;99.90
20750;DHT22;10535;50.664;4.564;2023-06-19T00:55:56;19.40;99.90
20750;DHT22;10535;50.664;4.564;2023-06-19T00:58:23;19.50;99.90
20750;DHT22;10535;50.664;4.564;2023-06-19T01:00:49;19.40;99.90
20750;DHT22;10535;50.664;4.564;2023-06-19T01:03:16;19.40;99.90
20750;DHT22;10535;50.664;4.564;2023-06-19T01:05:43;19.60;99.90
20750;DHT22;10535;50.664;4.564;2023-06-19T01:08:14;19.50;99.90
20750;DHT22;10535;50.664;4.564;2023-06-19T01:10:44;19.50;99.90
20750;DHT22;10535;50.664;4.564;2023-06-19T01:13:27;19.50;99.90
20750;DHT22;10535;50.664;4.564;2023-06-19T01:15:54;19.50;99.90
20750;DHT22;10535;50.664;4.564;2023-06-19T01:18:21;19.40;99.90
20750;DHT22;10535;50.664;4.564;2023-06-19T01:20:48;19.20;99.90
20750;DHT22;10535;50.664;4.564;2023-06-19T01:23:14;19.30;99.90
20750;DHT22;10535;50.664;4.564;2023-06-19T01:25:40;19.30;99.90
20750;DHT22;10535;50.664;4.564;2023-06-19T01:28:08;19.30;99.90
20750;DHT22;10535;50.664;4.564;2023-06-19T01:30:35;19.20;99.90
20750;DHT22;10535;50.664;4.564;2023-06-19T01:35:29;19.10;99.90
20750;DHT22;10535;50.664;4.564;2023-06-19T01:37:55;19.00;99.90
20750;DHT22;10535;50.664;4.564;2023-06-19T01:40:23;19.10;99.90
20750;DHT22;10535;50.664;4.564;2023-06-19T01:42:52;19.10;99.90
20750;DHT22;10535;50.664;4.564;2023-06-19T01:45:18;19.10;99.90
20750;DHT22;10535;50.664;4.564;2023-06-19T01:47:44;19.30;99.90
20750;DHT22;10535;50.664;4.564;2023-06-19T01:50:10;19.30;99.90
20750;DHT22;10535;50.664;4.564;2023-06-19T01:52:37;19.30;99.90
20750;DHT22;10535;50.664;4.564;2023-06-19T01:55:03;19.20;99.90
20750;DHT22;10535;50.664;4.564;2023-06-19T01:57:30;19.30;99.90
20750;DHT22;10535;50.664;4.564;2023-06-19T01:59:55;19.10;99.90
20750;DHT22;10535;50.664;4.564;2023-06-19T02:02:21;19.20;99.90
20750;DHT22;10535;50.664;4.564;2023-06-19T02:04:46;19.30;99.90
20750;DHT22;10535;50.664;4.564;2023-06-19T02:07:13;19.40;99.90
20750;DHT22;10535;50.664;4.564;2023-06-19T02:09:39;19.40;99.90
20750;DHT22;10535;50.664;4.564;2023-06-19T02:12:05;19.40;99.90
20750;DHT22;10535;50.664;4.564;2023-06-19T02:14:31;19.50;99.90
20750;DHT22;10535;50.664;4.564;2023-06-19T02:16:56;19.70;99.90
20750;DHT22;10535;50.664;4.564;2023-06-19T02:19:22;19.80;99.90
20750;DHT22;10535;50.664;4.564;2023-06-19T02:21:47;19.80;99.90
20750;DHT22;10535;50.664;4.564;2023-06-19T02:24:13;19.60;99.90
20750;DHT22;10535;50.664;4.564;2023-06-19T02:26:39;19.70;99.90
20750;DHT22;10535;50.664;4.564;2023-06-19T02:29:04;19.80;99.90
20750;DHT22;10535;50.664;4.564;2023-06-19T02:31:30;19.90;99.90
20750;DHT22;10535;50.664;4.564;2023-06-19T02:33:55;19.70;99.90
20750;DHT22;10535;50.664;4.564;2023-06-19T02:36:21;19.70;99.90
20750;DHT22;10535;50.664;4.564;2023-06-19T02:38:47;19.70;99.90
20750;DHT22;10535;50.664;4.564;2023-06-19T02:41:13;19.70;99.90
20750;DHT22;10535;50.664;4.564;2023-06-19T02:43:42;19.70;99.90
20750;DHT22;10535;50.664;4.564;2023-06-19T02:46:09;19.80;99.90
20750;DHT22;10535;50.664;4.564;2023-06-19T02:48:35;19.70;99.90
20750;DHT22;10535;50.664;4.564;2023-06-19T02:51:01;19.70;99.90
20750;DHT22;10535;50.664;4.564;2023-06-19T02:53:26;19.60;99.90
20750;DHT22;10535;50.664;4.564;2023-06-19T02:55:52;19.80;99.90
20750;DHT22;10535;50.664;4.564;2023-06-19T02:58:17;19.70;99.90
20750;DHT22;10535;50.664;4.564;2023-06-19T03:00:44;19.70;99.90
20750;DHT22;10535;50.664;4.564;2023-06-19T03:03:09;19.80;99.90
20750;DHT22;10535;50.664;4.564;2023-06-19T03:05:35;19.80;99.90
20750;DHT22;10535;50.664;4.564;2023-06-19T03:08:00;19.80;99.90
20750;DHT22;10535;50.664;4.564;2023-06-19T03:10:26;19.70;99.90
20750;DHT22;10535;50.664;4.564;2023-06-19T03:12:52;19.60;99.90
20750;DHT22;10535;50.664;4.564;2023-06-19T03:15:17;19.60;99.90
20750;DHT22;10535;50.664;4.564;2023-06-19T03:17:43;19.50;99.90
20750;DHT22;10535;50.664;4.564;2023-06-19T03:20:09;19.50;99.90
20750;DHT22;10535;50.664;4.564;2023-06-19T03:22:41;19.50;99.90
20750;DHT22;10535;50.664;4.564;2023-06-19T03:25:07;19.50;99.90
20750;DHT22;10535;50.664;4.564;2023-06-19T03:27:34;19.60;99.90
20750;DHT22;10535;50.664;4.564;2023-06-19T03:29:59;19.50;99.90
20750;DHT22;10535;50.664;4.564;2023-06-19T03:32:25;19.50;99.90
20750;DHT22;10535;50.664;4.564;2023-06-19T03:34:50;19.40;99.90
20750;DHT22;10535;50.664;4.564;2023-06-19T03:37:16;19.50;99.90
20750;DHT22;10535;50.664;4.564;2023-06-19T03:39:42;19.40;99.90
20750;DHT22;10535;50.664;4.564;2023-06-19T03:42:08;19.30;99.90
20750;DHT22;10535;50.664;4.564;2023-06-19T03:44:33;19.10;99.90
20750;DHT22;10535;50.664;4.564;2023-06-19T03:46:59;19.10;99.90
20750;DHT22;10535;50.664;4.564;2023-06-19T03:49:25;18.90;99.90
20750;DHT22;10535;50.664;4.564;2023-06-19T03:51:51;18.60;99.90
20750;DHT22;10535;50.664;4.564;2023-06-19T03:54:17;18.50;99.90
20750;DHT22;10535;50.664;4.564;2023-06-19T03:56:42;18.50;99.90
20750;DHT22;10535;50.664;4.564;2023-06-19T03:59:08;18.40;99.90
20750;DHT22;10535;50.664;4.564;2023-06-19T04:01:34;18.50;99.90
20750;DHT22;10535;50.664;4.564;2023-06-19T04:03:59;18.50;99.90
20750;DHT22;10535;50.664;4.564;2023-06-19T04:06:25;18.60;99.90
20750;DHT22;10535;50.664;4.564;2023-06-19T04:08:51;18.60;99.90
20750;DHT22;10535;50.664;4.564;2023-06-19T04:11:17;18.50;99.90
20750;DHT22;10535;50.664;4.564;2023-06-19T04:13:42;18.60;99.90
20750;DHT22;10535;50.664;4.564;2023-06-19T04:16:08;18.70;99.90
20750;DHT22;10535;50.664;4.564;2023-06-19T04:18:33;18.70;99.90
20750;DHT22;10535;50.664;4.564;2023-06-19T04:20:59;18.70;99.90
20750;DHT22;10535;50.664;4.564;2023-06-19T04:23:24;18.70;99.90
20750;DHT22;10535;50.664;4.564;2023-06-19T04:25:50;18.80;99.90
20750;DHT22;10535;50.664;4.564;2023-06-19T04:28:16;18.60;99.90
20750;DHT22;10535;50.664;4.564;2023-06-19T04:30:42;18.60;99.90
20750;DHT22;10535;50.664;4.564;2023-06-19T04:33:08;18.70;99.90
20750;DHT22;10535;50.664;4.564;2023-06-19T04:35:34;18.80;99.90
20750;DHT22;10535;50.664;4.564;2023-06-19T04:38:09;18.80;99.90
20750;DHT22;10535;50.664;4.564;2023-06-19T04:40:35;18.90;99.90
20750;DHT22;10535;50.664;4.564;2023-06-19T04:43:01;18.90;99.90
20750;DHT22;10535;50.664;4.564;2023-06-19T04:45:28;19.00;99.90
20750;DHT22;10535;50.664;4.564;2023-06-19T04:47:53;18.90;99.90
20750;DHT22;10535;50.664;4.564;2023-06-19T04:50:20;18.90;99.90
20750;DHT22;10535;50.664;4.564;2023-06-19T04:52:45;19.00;99.90
20750;DHT22;10535;50.664;4.564;2023-06-19T04:55:12;19.10;99.90
20750;DHT22;10535;50.664;4.564;2023-06-19T04:57:38;19.20;99.90
20750;DHT22;10535;50.664;4.564;2023-06-19T05:00:05;19.30;99.90
20750;DHT22;10535;50.664;4.564;2023-06-19T05:02:35;19.50;99.90
20750;DHT22;10535;50.664;4.564;2023-06-19T05:05:02;19.70;99.90
20750;DHT22;10535;50.664;4.564;2023-06-19T05:07:29;19.90;99.90
20750;DHT22;10535;50.664;4.564;2023-06-19T05:09:55;20.20;99.90
20750;DHT22;10535;50.664;4.564;2023-06-19T05:12:21;20.60;99.90
20750;DHT22;10535;50.664;4.564;2023-06-19T05:14:46;21.00;99.90
20750;DHT22;10535;50.664;4.564;2023-06-19T05:17:12;21.20;99.90
20750;DHT22;10535;50.664;4.564;2023-06-19T05:19:37;21.40;99.90
20750;DHT22;10535;50.664;4.564;2023-06-19T05:22:03;21.80;99.90
20750;DHT22;10535;50.664;4.564;2023-06-19T05:24:30;22.20;99.90
20750;DHT22;10535;50.664;4.564;2023-06-19T05:26:56;22.70;99.90
20750;DHT22;10535;50.664;4.564;2023-06-19T05:29:21;22.90;99.90
20750;DHT22;10535;50.664;4.564;2023-06-19T05:31:47;23.00;99.90
20750;DHT22;10535;50.664;4.564;2023-06-19T05:34:14;23.30;99.90
20750;DHT22;10535;50.664;4.564;2023-06-19T05:36:39;23.60;99.90
20750;DHT22;10535;50.664;4.564;2023-06-19T05:39:05;23.60;99.90
20750;DHT22;10535;50.664;4.564;2023-06-19T05:41:30;23.80;99.90
20750;DHT22;10535;50.664;4.564;2023-06-19T05:43:56;24.00;99.90
20750;DHT22;10535;50.664;4.564;2023-06-19T05:46:22;24.00;99.90
20750;DHT22;10535;50.664;4.564;2023-06-19T05:48:47;23.80;99.90
20750;DHT22;10535;50.664;4.564;2023-06-19T05:51:14;23.50;99.90
20750;DHT22;10535;50.664;4.564;2023-06-19T05:53:39;23.30;99.90
20750;DHT22;10535;50.664;4.564;2023-06-19T05:56:06;23.00;99.90
20750;DHT22;10535;50.664;4.564;2023-06-19T05:58:32;22.60;99.90
20750;DHT22;10535;50.664;4.564;2023-06-19T06:00:57;22.40;99.90
20750;DHT22;10535;50.664;4.564;2023-06-19T06:03:24;22.10;99.90
20750;DHT22;10535;50.664;4.564;2023-06-19T06:05:50;22.00;99.90
20750;DHT22;10535;50.664;4.564;2023-06-19T06:08:16;21.70;99.90
20750;DHT22;10535;50.664;4.564;2023-06-19T06:10:42;21.40;99.90
20750;DHT22;10535;50.664;4.564;2023-06-19T06:13:07;21.40;99.90
20750;DHT22;10535;50.664;4.564;2023-06-19T06:15:34;21.60;99.90
20750;DHT22;10535;50.664;4.564;2023-06-19T06:17:59;21.90;99.90
20750;DHT22;10535;50.664;4.564;2023-06-19T06:20:26;21.90;99.90
20750;DHT22;10535;50.664;4.564;2023-06-19T06:22:52;22.00;99.90
20750;DHT22;10535;50.664;4.564;2023-06-19T06:25:18;21.90;99.90
20750;DHT22;10535;50.664;4.564;2023-06-19T06:27:44;21.90;99.90
20750;DHT22;10535;50.664;4.564;2023-06-19T06:30:10;21.90;99.90
20750;DHT22;10535;50.664;4.564;2023-06-19T06:32:37;21.80;99.90
20750;DHT22;10535;50.664;4.564;2023-06-19T06:35:04;22.00;99.90
20750;DHT22;10535;50.664;4.564;2023-06-19T06:37:30;21.90;99.90
20750;DHT22;10535;50.664;4.564;2023-06-19T06:39:55;21.50;99.90
20750;DHT22;10535;50.664;4.564;2023-06-19T06:42:22;21.30;99.90
20750;DHT22;10535;50.664;4.564;2023-06-19T06:44:48;21.10;99.90
20750;DHT22;10535;50.664;4.564;2023-06-19T06:47:14;20.80;99.90
20750;DHT22;10535;50.664;4.564;2023-06-19T06:49:40;20.60;99.90
20750;DHT22;10535;50.664;4.564;2023-06-19T06:52:06;20.20;99.90
20750;DHT22;10535;50.664;4.564;2023-06-19T06:54:32;20.30;99.90
20750;DHT22;10535;50.664;4.564;2023-06-19T06:56:58;20.20;99.90
20750;DHT22;10535;50.664;4.564;2023-06-19T06:59:25;20.30;99.90
20750;DHT22;10535;50.664;4.564;2023-06-19T07:01:52;20.10;99.90
20750;DHT22;10535;50.664;4.564;2023-06-19T07:04:18;19.90;99.90
20750;DHT22;10535;50.664;4.564;2023-06-19T07:06:43;19.80;99.90
20750;DHT22;10535;50.664;4.564;2023-06-19T07:09:09;19.50;99.90
20750;DHT22;10535;50.664;4.564;2023-06-19T07:11:35;19.80;99.90
20750;DHT22;10535;50.664;4.564;2023-06-19T07:14:02;20.00;99.90
20750;DHT22;10535;50.664;4.564;2023-06-19T07:16:28;20.00;99.90
20750;DHT22;10535;50.664;4.564;2023-06-19T07:18:53;20.20;99.90
20750;DHT22;10535;50.664;4.564;2023-06-19T07:21:19;20.00;99.90
20750;DHT22;10535;50.664;4.564;2023-06-19T07:23:46;20.50;99.90
20750;DHT22;10535;50.664;4.564;2023-06-19T07:26:13;20.90;99.90
20750;DHT22;10535;50.664;4.564;2023-06-19T07:28:39;20.90;99.90
20750;DHT22;10535;50.664;4.564;2023-06-19T07:31:05;21.40;99.90
20750;DHT22;10535;50.664;4.564;2023-06-19T07:33:31;21.40;99.90
20750;DHT22;10535;50.664;4.564;2023-06-19T07:35:57;21.50;99.90
20750;DHT22;10535;50.664;4.564;2023-06-19T07:38:23;21.60;99.90
20750;DHT22;10535;50.664;4.564;2023-06-19T07:40:48;21.70;99.90
20750;DHT22;10535;50.664;4.564;2023-06-19T07:43:14;22.00;99.90
20750;DHT22;10535;50.664;4.564;2023-06-19T07:45:40;22.30;99.90
20750;DHT22;10535;50.664;4.564;2023-06-19T07:48:06;22.80;99.90
20750;DHT22;10535;50.664;4.564;2023-06-19T07:50:31;23.20;99.90
20750;DHT22;10535;50.664;4.564;2023-06-19T07:53:01;23.70;99.90
20750;DHT22;10535;50.664;4.564;2023-06-19T07:55:26;24.10;99.90
20750;DHT22;10535;50.664;4.564;2023-06-19T07:57:55;24.20;99.90
20750;DHT22;10535;50.664;4.564;2023-06-19T08:00:23;24.30;99.90
20750;DHT22;10535;50.664;4.564;2023-06-19T08:02:49;24.00;99.90
20750;DHT22;10535;50.664;4.564;2023-06-19T08:05:15;24.10;99.90
20750;DHT22;10535;50.664;4.564;2023-06-19T08:07:41;24.50;99.90
20750;DHT22;10535;50.664;4.564;2023-06-19T08:10:07;24.20;99.90
20750;DHT22;10535;50.664;4.564;2023-06-19T08:12:33;24.20;99.90
20750;DHT22;10535;50.664;4.564;2023-06-19T08:14:58;24.00;99.90
20750;DHT22;10535;50.664;4.564;2023-06-19T08:17:24;23.60;99.90
20750;DHT22;10535;50.664;4.564;2023-06-19T08:19:50;23.70;99.90
20750;DHT22;10535;50.664;4.564;2023-06-19T08:22:15;23.90;99.90
20750;DHT22;10535;50.664;4.564;2023-06-19T08:24:41;23.60;99.90
20750;DHT22;10535;50.664;4.564;2023-06-19T08:27:07;23.50;99.90
20750;DHT22;10535;50.664;4.564;2023-06-19T08:29:33;23.50;99.90
20750;DHT22;10535;50.664;4.564;2023-06-19T08:31:59;23.70;99.90
20750;DHT22;10535;50.664;4.564;2023-06-19T08:34:25;23.60;99.90
20750;DHT22;10535;50.664;4.564;2023-06-19T08:36:51;23.70;99.90
20750;DHT22;10535;50.664;4.564;2023-06-19T08:39:16;23.40;99.90
20750;DHT22;10535;50.664;4.564;2023-06-19T08:41:42;23.50;99.90
20750;DHT22;10535;50.664;4.564;2023-06-19T08:44:08;23.40;99.90
20750;DHT22;10535;50.664;4.564;2023-06-19T08:46:34;23.20;99.90
20750;DHT22;10535;50.664;4.564;2023-06-19T08:49:02;23.00;99.90
20750;DHT22;10535;50.664;4.564;2023-06-19T08:51:28;23.20;99.90
20750;DHT22;10535;50.664;4.564;2023-06-19T08:54:00;23.50;99.90
20750;DHT22;10535;50.664;4.564;2023-06-19T08:56:26;23.80;99.90
20750;DHT22;10535;50.664;4.564;2023-06-19T08:58:53;23.70;99.90
20750;DHT22;10535;50.664;4.564;2023-06-19T09:01:19;23.70;99.90
20750;DHT22;10535;50.664;4.564;2023-06-19T09:03:45;23.60;99.90
20750;DHT22;10535;50.664;4.564;2023-06-19T09:06:15;23.70;99.90
20750;DHT22;10535;50.664;4.564;2023-06-19T09:08:41;23.80;99.90
20750;DHT22;10535;50.664;4.564;2023-06-19T09:11:07;24.20;99.90
20750;DHT22;10535;50.664;4.564;2023-06-19T09:13:33;24.40;99.90
20750;DHT22;10535;50.664;4.564;2023-06-19T09:16:04;24.60;99.90
20750;DHT22;10535;50.664;4.564;2023-06-19T09:18:31;24.60;99.90
20750;DHT22;10535;50.664;4.564;2023-06-19T09:20:57;25.00;99.90
20750;DHT22;10535;50.664;4.564;2023-06-19T09:23:24;25.30;99.90
20750;DHT22;10535;50.664;4.564;2023-06-19T09:25:52;25.30;99.90
20750;DHT22;10535;50.664;4.564;2023-06-19T09:30:58;25.30;99.90
20750;DHT22;10535;50.664;4.564;2023-06-19T09:33:29;25.50;99.90
20750;DHT22;10535;50.664;4.564;2023-06-19T09:35:57;25.60;99.90
20750;DHT22;10535;50.664;4.564;2023-06-19T09:38:27;25.70;99.90
20750;DHT22;10535;50.664;4.564;2023-06-19T09:40:53;25.90;99.90
20750;DHT22;10535;50.664;4.564;2023-06-19T09:43:25;25.70;99.90
20750;DHT22;10535;50.664;4.564;2023-06-19T09:45:55;25.90;99.90
20750;DHT22;10535;50.664;4.564;2023-06-19T09:48:31;26.20;99.90
20750;DHT22;10535;50.664;4.564;2023-06-19T09:51:23;26.40;99.90
20750;DHT22;10535;50.664;4.564;2023-06-19T09:53:50;26.20;99.90
20750;DHT22;10535;50.664;4.564;2023-06-19T09:56:17;26.30;99.90
20750;DHT22;10535;50.664;4.564;2023-06-19T09:58:48;26.40;99.90
20750;DHT22;10535;50.664;4.564;2023-06-19T10:01:15;26.40;99.90
20750;DHT22;10535;50.664;4.564;2023-06-19T10:03:44;26.80;99.90
20750;DHT22;10535;50.664;4.564;2023-06-19T10:06:14;27.20;99.90
20750;DHT22;10535;50.664;4.564;2023-06-19T10:08:45;27.30;99.90
20750;DHT22;10535;50.664;4.564;2023-06-19T10:11:11;27.30;99.90
20750;DHT22;10535;50.664;4.564;2023-06-19T10:13:40;27.10;99.90
20750;DHT22;10535;50.664;4.564;2023-06-19T10:16:27;27.00;99.90
20750;DHT22;10535;50.664;4.564;2023-06-19T10:18:52;26.90;99.90
20750;DHT22;10535;50.664;4.564;2023-06-19T10:21:21;27.00;99.90
20750;DHT22;10535;50.664;4.564;2023-06-19T10:23:55;26.60;99.90
20750;DHT22;10535;50.664;4.564;2023-06-19T10:26:30;26.60;99.90
20750;DHT22;10535;50.664;4.564;2023-06-19T10:28:56;26.50;99.90
20750;DHT22;10535;50.664;4.564;2023-06-19T10:31:22;26.20;99.90
20750;DHT22;10535;50.664;4.564;2023-06-19T10:33:47;26.10;99.90
20750;DHT22;10535;50.664;4.564;2023-06-19T10:36:18;26.30;99.90
20750;DHT22;10535;50.664;4.564;2023-06-19T10:38:45;26.10;99.90
20750;DHT22;10535;50.664;4.564;2023-06-19T10:41:16;25.70;99.90
20750;DHT22;10535;50.664;4.564;2023-06-19T10:44:01;25.70;99.90
20750;DHT22;10535;50.664;4.564;2023-06-19T10:46:31;25.70;99.90
20750;DHT22;10535;50.664;4.564;2023-06-19T10:48:58;25.80;99.90
20750;DHT22;10535;50.664;4.564;2023-06-19T10:51:27;26.10;99.90
20750;DHT22;10535;50.664;4.564;2023-06-19T10:53:54;26.30;99.90
20750;DHT22;10535;50.664;4.564;2023-06-19T10:56:21;26.30;99.90
20750;DHT22;10535;50.664;4.564;2023-06-19T10:58:47;26.50;99.90
20750;DHT22;10535;50.664;4.564;2023-06-19T11:01:13;26.70;99.90
20750;DHT22;10535;50.664;4.564;2023-06-19T11:03:39;26.60;99.90
20750;DHT22;10535;50.664;4.564;2023-06-19T11:06:04;26.60;99.90
20750;DHT22;10535;50.664;4.564;2023-06-19T11:08:30;26.60;99.90
20750;DHT22;10535;50.664;4.564;2023-06-19T11:10:56;26.50;99.90
20750;DHT22;10535;50.664;4.564;2023-06-19T11:13:22;26.60;99.90
20750;DHT22;10535;50.664;4.564;2023-06-19T11:15:48;26.80;99.90
20750;DHT22;10535;50.664;4.564;2023-06-19T11:18:18;26.40;99.90
20750;DHT22;10535;50.664;4.564;2023-06-19T11:20:47;26.00;99.90
20750;DHT22;10535;50.664;4.564;2023-06-19T11:23:15;25.90;99.90
20750;DHT22;10535;50.664;4.564;2023-06-19T11:25:42;25.70;99.90
20750;DHT22;10535;50.664;4.564;2023-06-19T11:28:14;25.70;99.90
20750;DHT22;10535;50.664;4.564;2023-06-19T11:30:40;25.70;99.90
20750;DHT22;10535;50.664;4.564;2023-06-19T11:33:19;25.80;99.90
20750;DHT22;10535;50.664;4.564;2023-06-19T11:35:52;25.70;99.90
20750;DHT22;10535;50.664;4.564;2023-06-19T11:38:23;26.00;99.90
20750;DHT22;10535;50.664;4.564;2023-06-19T11:40:50;26.30;99.90
20750;DHT22;10535;50.664;4.564;2023-06-19T11:43:36;26.50;99.90
20750;DHT22;10535;50.664;4.564;2023-06-19T11:46:06;26.40;99.90
20750;DHT22;10535;50.664;4.564;2023-06-19T11:48:32;26.30;99.90
20750;DHT22;10535;50.664;4.564;2023-06-19T11:50:57;26.40;99.90
20750;DHT22;10535;50.664;4.564;2023-06-19T11:53:24;26.50;99.90
20750;DHT22;10535;50.664;4.564;2023-06-19T11:55:50;26.60;99.90
20750;DHT22;10535;50.664;4.564;2023-06-19T11:58:16;27.00;99.90
20750;DHT22;10535;50.664;4.564;2023-06-19T12:00:43;27.20;99.90
20750;DHT22;10535;50.664;4.564;2023-06-19T12:03:09;27.10;99.90
20750;DHT22;10535;50.664;4.564;2023-06-19T12:05:38;26.90;99.90
20750;DHT22;10535;50.664;4.564;2023-06-19T12:08:04;26.90;99.90
20750;DHT22;10535;50.664;4.564;2023-06-19T12:10:31;27.10;99.90
20750;DHT22;10535;50.664;4.564;2023-06-19T12:12:56;26.90;99.90
20750;DHT22;10535;50.664;4.564;2023-06-19T12:15:23;27.00;99.90
20750;DHT22;10535;50.664;4.564;2023-06-19T12:17:50;27.40;99.90
20750;DHT22;10535;50.664;4.564;2023-06-19T12:20:16;27.50;99.90
20750;DHT22;10535;50.664;4.564;2023-06-19T12:22:41;27.70;99.90
20750;DHT22;10535;50.664;4.564;2023-06-19T12:25:08;28.10;99.90
20750;DHT22;10535;50.664;4.564;2023-06-19T12:27:33;27.70;99.90
20750;DHT22;10535;50.664;4.564;2023-06-19T12:29:59;27.50;99.90
20750;DHT22;10535;50.664;4.564;2023-06-19T12:32:25;27.20;99.90
20750;DHT22;10535;50.664;4.564;2023-06-19T12:34:50;27.10;99.90
20750;DHT22;10535;50.664;4.564;2023-06-19T12:37:20;27.30;99.90
20750;DHT22;10535;50.664;4.564;2023-06-19T12:39:46;27.60;99.90
20750;DHT22;10535;50.664;4.564;2023-06-19T12:42:13;27.80;99.90
20750;DHT22;10535;50.664;4.564;2023-06-19T12:44:40;27.60;99.90
20750;DHT22;10535;50.664;4.564;2023-06-19T12:47:06;27.70;99.90
20750;DHT22;10535;50.664;4.564;2023-06-19T12:49:32;27.70;99.90
20750;DHT22;10535;50.664;4.564;2023-06-19T12:51:58;27.70;99.90
20750;DHT22;10535;50.664;4.564;2023-06-19T12:54:23;28.10;99.90
20750;DHT22;10535;50.664;4.564;2023-06-19T12:56:49;28.20;99.90
20750;DHT22;10535;50.664;4.564;2023-06-19T12:59:16;28.00;99.90
20750;DHT22;10535;50.664;4.564;2023-06-19T13:01:42;27.90;99.90
20750;DHT22;10535;50.664;4.564;2023-06-19T13:04:07;27.70;99.90
20750;DHT22;10535;50.664;4.564;2023-06-19T13:06:33;27.70;99.90
20750;DHT22;10535;50.664;4.564;2023-06-19T13:08:59;28.00;99.90
20750;DHT22;10535;50.664;4.564;2023-06-19T13:11:24;28.10;99.90
20750;DHT22;10535;50.664;4.564;2023-06-19T13:13:50;28.20;99.90
20750;DHT22;10535;50.664;4.564;2023-06-19T13:16:15;28.20;99.90
20750;DHT22;10535;50.664;4.564;2023-06-19T13:18:44;28.10;99.90
20750;DHT22;10535;50.664;4.564;2023-06-19T13:21:11;28.20;99.90
20750;DHT22;10535;50.664;4.564;2023-06-19T13:23:37;28.40;99.90
20750;DHT22;10535;50.664;4.564;2023-06-19T13:26:03;28.50;99.90
20750;DHT22;10535;50.664;4.564;2023-06-19T13:28:28;28.30;99.90
20750;DHT22;10535;50.664;4.564;2023-06-19T13:30:54;28.30;99.90
20750;DHT22;10535;50.664;4.564;2023-06-19T13:33:20;28.00;99.90
20750;DHT22;10535;50.664;4.564;2023-06-19T13:35:45;28.10;99.90
20750;DHT22;10535;50.664;4.564;2023-06-19T13:38:12;28.20;99.90
20750;DHT22;10535;50.664;4.564;2023-06-19T13:40:37;28.10;99.90
20750;DHT22;10535;50.664;4.564;2023-06-19T13:43:03;28.00;99.90
20750;DHT22;10535;50.664;4.564;2023-06-19T13:45:31;28.00;99.90
20750;DHT22;10535;50.664;4.564;2023-06-19T13:47:57;28.20;99.90
20750;DHT22;10535;50.664;4.564;2023-06-19T13:50:23;27.70;99.90
20750;DHT22;10535;50.664;4.564;2023-06-19T13:52:49;27.70;99.90
20750;DHT22;10535;50.664;4.564;2023-06-19T13:57:50;28.60;99.90
20750;DHT22;10535;50.664;4.564;2023-06-19T14:00:16;28.70;99.90
20750;DHT22;10535;50.664;4.564;2023-06-19T14:02:42;29.00;99.90
20750;DHT22;10535;50.664;4.564;2023-06-19T14:05:08;29.10;99.90
20750;DHT22;10535;50.664;4.564;2023-06-19T14:07:36;29.30;99.90
20750;DHT22;10535;50.664;4.564;2023-06-19T14:10:09;29.10;99.90
20750;DHT22;10535;50.664;4.564;2023-06-19T14:12:35;29.00;99.90
20750;DHT22;10535;50.664;4.564;2023-06-19T14:15:02;29.00;99.90
20750;DHT22;10535;50.664;4.564;2023-06-19T14:17:27;29.00;99.90
20750;DHT22;10535;50.664;4.564;2023-06-19T14:19:53;29.20;99.90
20750;DHT22;10535;50.664;4.564;2023-06-19T14:22:20;29.00;99.90
20750;DHT22;10535;50.664;4.564;2023-06-19T14:24:46;29.30;99.90
20750;DHT22;10535;50.664;4.564;2023-06-19T14:27:12;29.30;99.90
20750;DHT22;10535;50.664;4.564;2023-06-19T14:29:38;29.50;99.90
20750;DHT22;10535;50.664;4.564;2023-06-19T14:32:03;29.60;99.90
20750;DHT22;10535;50.664;4.564;2023-06-19T14:34:31;29.70;99.90
20750;DHT22;10535;50.664;4.564;2023-06-19T14:37:01;29.60;99.90
20750;DHT22;10535;50.664;4.564;2023-06-19T14:42:05;28.70;99.90
20750;DHT22;10535;50.664;4.564;2023-06-19T14:44:39;29.00;99.90
20750;DHT22;10535;50.664;4.564;2023-06-19T14:47:06;28.90;99.90
20750;DHT22;10535;50.664;4.564;2023-06-19T14:49:33;28.60;99.90
20750;DHT22;10535;50.664;4.564;2023-06-19T14:52:04;28.70;99.90
20750;DHT22;10535;50.664;4.564;2023-06-19T14:54:40;28.60;99.90
20750;DHT22;10535;50.664;4.564;2023-06-19T14:57:06;28.30;99.90
20750;DHT22;10535;50.664;4.564;2023-06-19T14:59:32;28.60;99.90
20750;DHT22;10535;50.664;4.564;2023-06-19T15:01:57;28.50;99.90
20750;DHT22;10535;50.664;4.564;2023-06-19T15:04:23;28.60;99.90
20750;DHT22;10535;50.664;4.564;2023-06-19T15:06:49;28.40;99.90
20750;DHT22;10535;50.664;4.564;2023-06-19T15:09:14;28.40;99.90
20750;DHT22;10535;50.664;4.564;2023-06-19T15:11:40;28.60;99.90
20750;DHT22;10535;50.664;4.564;2023-06-19T15:14:06;28.90;99.90
20750;DHT22;10535;50.664;4.564;2023-06-19T15:16:32;29.10;99.90
20750;DHT22;10535;50.664;4.564;2023-06-19T15:19:03;29.00;99.90
20750;DHT22;10535;50.664;4.564;2023-06-19T15:21:49;28.60;99.90
20750;DHT22;10535;50.664;4.564;2023-06-19T15:24:15;28.60;99.90
20750;DHT22;10535;50.664;4.564;2023-06-19T15:26:41;28.40;99.90
20750;DHT22;10535;50.664;4.564;2023-06-19T15:29:08;28.30;99.90
20750;DHT22;10535;50.664;4.564;2023-06-19T15:31:37;28.20;99.90
20750;DHT22;10535;50.664;4.564;2023-06-19T15:34:05;28.20;99.90
20750;DHT22;10535;50.664;4.564;2023-06-19T15:36:31;28.60;99.90
20750;DHT22;10535;50.664;4.564;2023-06-19T15:38:57;28.80;99.90